sensor_id;sensor_type;location;lat;lon;timestamp;P1;durP1;ratioP1;P2;durP2;ratioP2
29340;SDS011;16337;59.536;13.468;2023-02-01T00:01:54;0.70;;;0.70;;
29340;SDS011;16337;59.536;13.468;2023-02-01T00:04:21;0.60;;;0.60;;
29340;SDS011;16337;59.536;13.468;2023-02-01T00:06:47;0.60;;;0.60;;
29340;SDS011;16337;59.536;13.468;2023-02-01T00:09:13;0.60;;;0.60;;
29340;SDS011;16337;59.536;13.468;2023-02-01T00:11:39;0.65;;;0.65;;
29340;SDS011;16337;59.536;13.468;2023-02-01T00:14:05;0.70;;;0.70;;
29340;SDS011;16337;59.536;13.468;2023-02-01T00:16:31;0.70;;;0.70;;
29340;SDS011;16337;59.536;13.468;2023-02-01T00:18:58;0.60;;;0.60;;
29340;SDS011;16337;59.536;13.468;2023-02-01T00:21:30;0.70;;;0.70;;
29340;SDS011;16337;59.536;13.468;2023-02-01T00:23:56;0.70;;;0.70;;
29340;SDS011;16337;59.536;13.468;2023-02-01T00:29:01;0.80;;;0.80;;
29340;SDS011;16337;59.536;13.468;2023-02-01T00:31:29;0.70;;;0.70;;
29340;SDS011;16337;59.536;13.468;2023-02-01T00:33:55;0.60;;;0.60;;
29340;SDS011;16337;59.536;13.468;2023-02-01T00:36:21;0.70;;;0.70;;
29340;SDS011;16337;59.536;13.468;2023-02-01T00:38:46;0.50;;;0.50;;
29340;SDS011;16337;59.536;13.468;2023-02-01T00:41:13;0.80;;;0.80;;
29340;SDS011;16337;59.536;13.468;2023-02-01T00:43:44;0.60;;;0.60;;
29340;SDS011;16337;59.536;13.468;2023-02-01T00:46:10;0.60;;;0.60;;
29340;SDS011;16337;59.536;13.468;2023-02-01T00:48:37;0.70;;;0.70;;
29340;SDS011;16337;59.536;13.468;2023-02-01T00:51:05;5.45;;;3.00;;
29340;SDS011;16337;59.536;13.468;2023-02-01T00:53:36;0.57;;;0.57;;
29340;SDS011;16337;59.536;13.468;2023-02-01T00:56:02;0.77;;;0.77;;
29340;SDS011;16337;59.536;13.468;2023-02-01T00:58:29;0.70;;;0.70;;
29340;SDS011;16337;59.536;13.468;2023-02-01T01:01:08;0.60;;;0.60;;
29340;SDS011;16337;59.536;13.468;2023-02-01T01:03:35;0.80;;;0.80;;
29340;SDS011;16337;59.536;13.468;2023-02-01T01:06:04;0.70;;;0.70;;
29340;SDS011;16337;59.536;13.468;2023-02-01T01:08:32;0.57;;;0.57;;
29340;SDS011;16337;59.536;13.468;2023-02-01T01:10:59;0.50;;;0.50;;
29340;SDS011;16337;59.536;13.468;2023-02-01T01:13:28;1.17;;;0.85;;
29340;SDS011;16337;59.536;13.468;2023-02-01T01:15:54;0.50;;;0.50;;
29340;SDS011;16337;59.536;13.468;2023-02-01T01:18:20;0.77;;;0.77;;
29340;SDS011;16337;59.536;13.468;2023-02-01T01:20:47;0.70;;;0.70;;
29340;SDS011;16337;59.536;13.468;2023-02-01T01:23:13;0.60;;;0.60;;
29340;SDS011;16337;59.536;13.468;2023-02-01T01:25:39;0.60;;;0.60;;
29340;SDS011;16337;59.536;13.468;2023-02-01T01:28:05;0.65;;;0.65;;
29340;SDS011;16337;59.536;13.468;2023-02-01T01:30:31;0.60;;;0.60;;
29340;SDS011;16337;59.536;13.468;2023-02-01T01:32:59;0.60;;;0.60;;
29340;SDS011;16337;59.536;13.468;2023-02-01T01:35:25;0.70;;;0.70;;
29340;SDS011;16337;59.536;13.468;2023-02-01T01:37:50;1.17;;;1.08;;
29340;SDS011;16337;59.536;13.468;2023-02-01T01:40:16;0.50;;;0.50;;
29340;SDS011;16337;59.536;13.468;2023-02-01T01:42:42;0.60;;;0.60;;
29340;SDS011;16337;59.536;13.468;2023-02-01T01:45:23;0.70;;;0.70;;
29340;SDS011;16337;59.536;13.468;2023-02-01T01:47:54;0.70;;;0.70;;
29340;SDS011;16337;59.536;13.468;2023-02-01T01:50:31;0.70;;;0.70;;
29340;SDS011;16337;59.536;13.468;2023-02-01T01:53:03;0.60;;;0.60;;
29340;SDS011;16337;59.536;13.468;2023-02-01T01:55:32;0.60;;;0.60;;
29340;SDS011;16337;59.536;13.468;2023-02-01T01:58:06;0.60;;;0.60;;
29340;SDS011;16337;59.536;13.468;2023-02-01T02:00:35;0.60;;;0.60;;
29340;SDS011;16337;59.536;13.468;2023-02-01T02:03:13;0.57;;;0.57;;
29340;SDS011;16337;59.536;13.468;2023-02-01T02:05:44;0.70;;;0.70;;
29340;SDS011;16337;59.536;13.468;2023-02-01T02:08:13;0.70;;;0.70;;
29340;SDS011;16337;59.536;13.468;2023-02-01T02:10:38;0.70;;;0.70;;
29340;SDS011;16337;59.536;13.468;2023-02-01T02:13:23;0.60;;;0.60;;
29340;SDS011;16337;59.536;13.468;2023-02-01T02:21:16;0.60;;;0.60;;
29340;SDS011;16337;59.536;13.468;2023-02-01T02:24:06;0.55;;;0.55;;
29340;SDS011;16337;59.536;13.468;2023-02-01T02:26:58;0.52;;;0.52;;
29340;SDS011;16337;59.536;13.468;2023-02-01T02:32:48;0.70;;;0.70;;
29340;SDS011;16337;59.536;13.468;2023-02-01T02:43:37;0.60;;;0.60;;
29340;SDS011;16337;59.536;13.468;2023-02-01T02:46:37;0.60;;;0.60;;
29340;SDS011;16337;59.536;13.468;2023-02-01T02:49:31;0.50;;;0.50;;
29340;SDS011;16337;59.536;13.468;2023-02-01T02:52:32;0.60;;;0.60;;
29340;SDS011;16337;59.536;13.468;2023-02-01T02:55:19;0.60;;;0.60;;
29340;SDS011;16337;59.536;13.468;2023-02-01T02:57:46;0.60;;;0.60;;
29340;SDS011;16337;59.536;13.468;2023-02-01T03:00:31;0.65;;;0.65;;
29340;SDS011;16337;59.536;13.468;2023-02-01T03:03:17;0.52;;;0.52;;
29340;SDS011;16337;59.536;13.468;2023-02-01T03:06:02;0.50;;;0.50;;
29340;SDS011;16337;59.536;13.468;2023-02-01T03:08:30;0.70;;;0.70;;
29340;SDS011;16337;59.536;13.468;2023-02-01T03:11:06;0.60;;;0.60;;
29340;SDS011;16337;59.536;13.468;2023-02-01T03:16:19;0.60;;;0.60;;
29340;SDS011;16337;59.536;13.468;2023-02-01T03:18:55;0.70;;;0.70;;
29340;SDS011;16337;59.536;13.468;2023-02-01T03:21:26;0.65;;;0.65;;
29340;SDS011;16337;59.536;13.468;2023-02-01T03:23:55;0.70;;;0.70;;
29340;SDS011;16337;59.536;13.468;2023-02-01T03:26:25;0.57;;;0.57;;
29340;SDS011;16337;59.536;13.468;2023-02-01T03:28:54;0.52;;;0.52;;
29340;SDS011;16337;59.536;13.468;2023-02-01T03:31:25;0.60;;;0.60;;
29340;SDS011;16337;59.536;13.468;2023-02-01T03:33:53;0.70;;;0.70;;
29340;SDS011;16337;59.536;13.468;2023-02-01T03:36:56;0.60;;;0.60;;
29340;SDS011;16337;59.536;13.468;2023-02-01T03:41:55;0.65;;;0.65;;
29340;SDS011;16337;59.536;13.468;2023-02-01T03:44:47;0.60;;;0.60;;
29340;SDS011;16337;59.536;13.468;2023-02-01T03:47:20;0.50;;;0.50;;
29340;SDS011;16337;59.536;13.468;2023-02-01T03:49:49;0.55;;;0.55;;
29340;SDS011;16337;59.536;13.468;2023-02-01T03:52:22;0.70;;;0.70;;
29340;SDS011;16337;59.536;13.468;2023-02-01T03:54:51;0.80;;;0.80;;
29340;SDS011;16337;59.536;13.468;2023-02-01T03:57:18;0.63;;;0.63;;
29340;SDS011;16337;59.536;13.468;2023-02-01T03:59:50;0.65;;;0.65;;
29340;SDS011;16337;59.536;13.468;2023-02-01T04:02:16;0.60;;;0.60;;
29340;SDS011;16337;59.536;13.468;2023-02-01T04:04:41;0.60;;;0.60;;
29340;SDS011;16337;59.536;13.468;2023-02-01T04:07:07;0.60;;;0.60;;
29340;SDS011;16337;59.536;13.468;2023-02-01T04:09:33;0.70;;;0.70;;
29340;SDS011;16337;59.536;13.468;2023-02-01T04:11:58;0.68;;;0.68;;
29340;SDS011;16337;59.536;13.468;2023-02-01T04:14:24;0.50;;;0.50;;
29340;SDS011;16337;59.536;13.468;2023-02-01T04:16:50;0.60;;;0.60;;
29340;SDS011;16337;59.536;13.468;2023-02-01T04:19:16;0.63;;;0.63;;
29340;SDS011;16337;59.536;13.468;2023-02-01T04:21:41;0.60;;;0.60;;
29340;SDS011;16337;59.536;13.468;2023-02-01T04:24:07;0.68;;;0.68;;
29340;SDS011;16337;59.536;13.468;2023-02-01T04:26:33;0.77;;;0.77;;
29340;SDS011;16337;59.536;13.468;2023-02-01T04:28:59;0.65;;;0.65;;
29340;SDS011;16337;59.536;13.468;2023-02-01T04:31:25;0.70;;;0.70;;
29340;SDS011;16337;59.536;13.468;2023-02-01T04:33:51;1.38;;;0.98;;
29340;SDS011;16337;59.536;13.468;2023-02-01T04:36:18;0.60;;;0.60;;
29340;SDS011;16337;59.536;13.468;2023-02-01T04:38:50;0.70;;;0.70;;
29340;SDS011;16337;59.536;13.468;2023-02-01T04:41:17;0.70;;;0.70;;
29340;SDS011;16337;59.536;13.468;2023-02-01T04:43:46;0.90;;;0.90;;
29340;SDS011;16337;59.536;13.468;2023-02-01T04:46:13;0.60;;;0.60;;
29340;SDS011;16337;59.536;13.468;2023-02-01T04:48:39;0.70;;;0.70;;
29340;SDS011;16337;59.536;13.468;2023-02-01T04:51:05;0.60;;;0.60;;
29340;SDS011;16337;59.536;13.468;2023-02-01T04:53:31;0.60;;;0.60;;
29340;SDS011;16337;59.536;13.468;2023-02-01T04:55:57;0.50;;;0.50;;
29340;SDS011;16337;59.536;13.468;2023-02-01T04:58:22;0.60;;;0.60;;
29340;SDS011;16337;59.536;13.468;2023-02-01T05:00:48;0.70;;;0.70;;
29340;SDS011;16337;59.536;13.468;2023-02-01T05:03:14;0.70;;;0.70;;
29340;SDS011;16337;59.536;13.468;2023-02-01T05:05:40;0.50;;;0.50;;
29340;SDS011;16337;59.536;13.468;2023-02-01T05:08:07;1.00;;;1.00;;
29340;SDS011;16337;59.536;13.468;2023-02-01T05:10:33;0.60;;;0.60;;
29340;SDS011;16337;59.536;13.468;2023-02-01T05:12:58;0.50;;;0.50;;
29340;SDS011;16337;59.536;13.468;2023-02-01T05:15:42;0.60;;;0.60;;
29340;SDS011;16337;59.536;13.468;2023-02-01T05:18:08;0.73;;;0.73;;
29340;SDS011;16337;59.536;13.468;2023-02-01T05:20:34;0.60;;;0.60;;
29340;SDS011;16337;59.536;13.468;2023-02-01T05:23:00;0.63;;;0.63;;
29340;SDS011;16337;59.536;13.468;2023-02-01T05:25:25;0.63;;;0.63;;
29340;SDS011;16337;59.536;13.468;2023-02-01T05:27:51;0.57;;;0.57;;
29340;SDS011;16337;59.536;13.468;2023-02-01T05:30:18;0.65;;;0.65;;
29340;SDS011;16337;59.536;13.468;2023-02-01T05:32:44;0.73;;;0.73;;
29340;SDS011;16337;59.536;13.468;2023-02-01T05:35:09;0.52;;;0.52;;
29340;SDS011;16337;59.536;13.468;2023-02-01T05:37:35;0.50;;;0.50;;
29340;SDS011;16337;59.536;13.468;2023-02-01T05:40:01;0.70;;;0.70;;
29340;SDS011;16337;59.536;13.468;2023-02-01T05:42:27;0.70;;;0.70;;
29340;SDS011;16337;59.536;13.468;2023-02-01T05:44:53;0.70;;;0.70;;
29340;SDS011;16337;59.536;13.468;2023-02-01T05:47:18;0.60;;;0.60;;
29340;SDS011;16337;59.536;13.468;2023-02-01T05:49:45;0.68;;;0.68;;
29340;SDS011;16337;59.536;13.468;2023-02-01T05:52:11;0.70;;;0.70;;
29340;SDS011;16337;59.536;13.468;2023-02-01T05:54:37;0.55;;;0.55;;
29340;SDS011;16337;59.536;13.468;2023-02-01T05:57:02;0.60;;;0.60;;
29340;SDS011;16337;59.536;13.468;2023-02-01T05:59:28;0.65;;;0.65;;
29340;SDS011;16337;59.536;13.468;2023-02-01T06:01:54;0.80;;;0.80;;
29340;SDS011;16337;59.536;13.468;2023-02-01T06:04:20;0.60;;;0.60;;
29340;SDS011;16337;59.536;13.468;2023-02-01T06:06:46;0.70;;;0.70;;
29340;SDS011;16337;59.536;13.468;2023-02-01T06:09:11;0.60;;;0.60;;
29340;SDS011;16337;59.536;13.468;2023-02-01T06:11:37;0.70;;;0.70;;
29340;SDS011;16337;59.536;13.468;2023-02-01T06:14:05;0.60;;;0.60;;
29340;SDS011;16337;59.536;13.468;2023-02-01T06:16:32;0.60;;;0.60;;
29340;SDS011;16337;59.536;13.468;2023-02-01T06:18:58;0.60;;;0.60;;
29340;SDS011;16337;59.536;13.468;2023-02-01T06:21:24;0.60;;;0.60;;
29340;SDS011;16337;59.536;13.468;2023-02-01T06:23:51;0.52;;;0.52;;
29340;SDS011;16337;59.536;13.468;2023-02-01T06:26:18;0.70;;;0.70;;
29340;SDS011;16337;59.536;13.468;2023-02-01T06:28:44;0.70;;;0.70;;
29340;SDS011;16337;59.536;13.468;2023-02-01T06:31:10;0.60;;;0.60;;
29340;SDS011;16337;59.536;13.468;2023-02-01T06:33:36;0.57;;;0.57;;
29340;SDS011;16337;59.536;13.468;2023-02-01T06:36:03;0.60;;;0.60;;
29340;SDS011;16337;59.536;13.468;2023-02-01T06:38:31;0.65;;;0.65;;
29340;SDS011;16337;59.536;13.468;2023-02-01T06:41:00;0.70;;;0.70;;
29340;SDS011;16337;59.536;13.468;2023-02-01T06:43:26;0.70;;;0.70;;
29340;SDS011;16337;59.536;13.468;2023-02-01T06:45:52;0.70;;;0.70;;
29340;SDS011;16337;59.536;13.468;2023-02-01T06:48:18;0.80;;;0.80;;
29340;SDS011;16337;59.536;13.468;2023-02-01T06:50:44;0.70;;;0.70;;
29340;SDS011;16337;59.536;13.468;2023-02-01T06:53:10;0.63;;;0.63;;
29340;SDS011;16337;59.536;13.468;2023-02-01T06:55:36;0.52;;;0.52;;
29340;SDS011;16337;59.536;13.468;2023-02-01T06:58:01;0.70;;;0.70;;
29340;SDS011;16337;59.536;13.468;2023-02-01T07:00:27;0.60;;;0.60;;
29340;SDS011;16337;59.536;13.468;2023-02-01T07:02:54;0.57;;;0.57;;
29340;SDS011;16337;59.536;13.468;2023-02-01T07:05:20;0.70;;;0.70;;
29340;SDS011;16337;59.536;13.468;2023-02-01T07:07:46;0.55;;;0.55;;
29340;SDS011;16337;59.536;13.468;2023-02-01T07:10:12;0.70;;;0.70;;
29340;SDS011;16337;59.536;13.468;2023-02-01T07:12:38;1.55;;;1.45;;
29340;SDS011;16337;59.536;13.468;2023-02-01T07:15:04;4.50;;;2.58;;
29340;SDS011;16337;59.536;13.468;2023-02-01T07:17:30;0.63;;;0.63;;
29340;SDS011;16337;59.536;13.468;2023-02-01T07:19:56;1.23;;;1.13;;
29340;SDS011;16337;59.536;13.468;2023-02-01T07:22:24;0.73;;;0.73;;
29340;SDS011;16337;59.536;13.468;2023-02-01T07:24:51;0.50;;;0.50;;
29340;SDS011;16337;59.536;13.468;2023-02-01T07:27:16;0.68;;;0.68;;
29340;SDS011;16337;59.536;13.468;2023-02-01T07:29:42;0.70;;;0.70;;
29340;SDS011;16337;59.536;13.468;2023-02-01T07:32:08;0.70;;;0.70;;
29340;SDS011;16337;59.536;13.468;2023-02-01T07:34:33;1.63;;;1.52;;
29340;SDS011;16337;59.536;13.468;2023-02-01T07:36:59;0.80;;;0.80;;
29340;SDS011;16337;59.536;13.468;2023-02-01T07:39:25;0.80;;;0.80;;
29340;SDS011;16337;59.536;13.468;2023-02-01T07:41:53;0.60;;;0.60;;
29340;SDS011;16337;59.536;13.468;2023-02-01T07:44:19;0.68;;;0.68;;
29340;SDS011;16337;59.536;13.468;2023-02-01T07:46:47;0.73;;;0.73;;
29340;SDS011;16337;59.536;13.468;2023-02-01T07:49:14;0.70;;;0.70;;
29340;SDS011;16337;59.536;13.468;2023-02-01T07:51:39;0.80;;;0.80;;
29340;SDS011;16337;59.536;13.468;2023-02-01T07:54:05;0.70;;;0.70;;
29340;SDS011;16337;59.536;13.468;2023-02-01T07:56:31;0.70;;;0.70;;
29340;SDS011;16337;59.536;13.468;2023-02-01T07:58:57;0.70;;;0.70;;
29340;SDS011;16337;59.536;13.468;2023-02-01T08:01:25;0.98;;;0.98;;
29340;SDS011;16337;59.536;13.468;2023-02-01T08:04:01;0.70;;;0.70;;
29340;SDS011;16337;59.536;13.468;2023-02-01T08:06:29;0.60;;;0.60;;
29340;SDS011;16337;59.536;13.468;2023-02-01T08:08:56;0.70;;;0.70;;
29340;SDS011;16337;59.536;13.468;2023-02-01T08:11:23;0.60;;;0.60;;
29340;SDS011;16337;59.536;13.468;2023-02-01T08:13:50;0.50;;;0.50;;
29340;SDS011;16337;59.536;13.468;2023-02-01T08:16:16;0.60;;;0.60;;
29340;SDS011;16337;59.536;13.468;2023-02-01T08:18:43;1.67;;;1.58;;
29340;SDS011;16337;59.536;13.468;2023-02-01T08:21:11;0.70;;;0.70;;
29340;SDS011;16337;59.536;13.468;2023-02-01T08:23:39;0.88;;;0.88;;
29340;SDS011;16337;59.536;13.468;2023-02-01T08:26:19;0.68;;;0.68;;
29340;SDS011;16337;59.536;13.468;2023-02-01T08:28:51;0.60;;;0.60;;
29340;SDS011;16337;59.536;13.468;2023-02-01T08:31:22;0.65;;;0.65;;
29340;SDS011;16337;59.536;13.468;2023-02-01T08:33:51;0.60;;;0.60;;
29340;SDS011;16337;59.536;13.468;2023-02-01T08:36:22;0.70;;;0.70;;
29340;SDS011;16337;59.536;13.468;2023-02-01T08:38:49;0.63;;;0.63;;
29340;SDS011;16337;59.536;13.468;2023-02-01T08:41:16;0.68;;;0.68;;
29340;SDS011;16337;59.536;13.468;2023-02-01T08:43:44;0.70;;;0.70;;
29340;SDS011;16337;59.536;13.468;2023-02-01T08:46:10;0.60;;;0.60;;
29340;SDS011;16337;59.536;13.468;2023-02-01T08:48:37;0.60;;;0.60;;
29340;SDS011;16337;59.536;13.468;2023-02-01T08:51:04;0.70;;;0.70;;
29340;SDS011;16337;59.536;13.468;2023-02-01T08:53:31;0.50;;;0.50;;
29340;SDS011;16337;59.536;13.468;2023-02-01T08:55:57;0.90;;;0.90;;
29340;SDS011;16337;59.536;13.468;2023-02-01T08:58:23;0.60;;;0.60;;
29340;SDS011;16337;59.536;13.468;2023-02-01T09:00:49;0.70;;;0.70;;
29340;SDS011;16337;59.536;13.468;2023-02-01T09:03:16;0.70;;;0.70;;
29340;SDS011;16337;59.536;13.468;2023-02-01T09:05:42;0.70;;;0.70;;
29340;SDS011;16337;59.536;13.468;2023-02-01T09:08:07;1.20;;;1.17;;
29340;SDS011;16337;59.536;13.468;2023-02-01T09:10:34;0.68;;;0.68;;
29340;SDS011;16337;59.536;13.468;2023-02-01T09:13:01;0.70;;;0.70;;
29340;SDS011;16337;59.536;13.468;2023-02-01T09:15:28;1.90;;;1.80;;
29340;SDS011;16337;59.536;13.468;2023-02-01T09:17:53;0.60;;;0.60;;
29340;SDS011;16337;59.536;13.468;2023-02-01T09:20:19;1.65;;;1.42;;
29340;SDS011;16337;59.536;13.468;2023-02-01T09:22:49;0.60;;;0.60;;
29340;SDS011;16337;59.536;13.468;2023-02-01T09:25:15;0.70;;;0.70;;
29340;SDS011;16337;59.536;13.468;2023-02-01T09:27:41;1.55;;;0.93;;
29340;SDS011;16337;59.536;13.468;2023-02-01T09:30:07;0.90;;;0.90;;
29340;SDS011;16337;59.536;13.468;2023-02-01T09:32:34;0.80;;;0.80;;
29340;SDS011;16337;59.536;13.468;2023-02-01T09:35:00;1.33;;;1.25;;
29340;SDS011;16337;59.536;13.468;2023-02-01T09:37:26;0.65;;;0.65;;
29340;SDS011;16337;59.536;13.468;2023-02-01T09:39:52;1.55;;;1.45;;
29340;SDS011;16337;59.536;13.468;2023-02-01T09:45:02;0.60;;;0.60;;
29340;SDS011;16337;59.536;13.468;2023-02-01T09:47:49;1.25;;;1.20;;
29340;SDS011;16337;59.536;13.468;2023-02-01T09:50:21;1.27;;;1.17;;
29340;SDS011;16337;59.536;13.468;2023-02-01T09:53:06;3.45;;;3.15;;
29340;SDS011;16337;59.536;13.468;2023-02-01T09:55:47;1.23;;;1.17;;
29340;SDS011;16337;59.536;13.468;2023-02-01T09:58:27;1.08;;;1.02;;
29340;SDS011;16337;59.536;13.468;2023-02-01T10:00:59;1.35;;;1.25;;
29340;SDS011;16337;59.536;13.468;2023-02-01T10:03:28;0.70;;;0.70;;
29340;SDS011;16337;59.536;13.468;2023-02-01T10:15:38;1.52;;;1.42;;
29340;SDS011;16337;59.536;13.468;2023-02-01T10:28:43;0.95;;;0.95;;
29340;SDS011;16337;59.536;13.468;2023-02-01T10:31:18;0.60;;;0.60;;
29340;SDS011;16337;59.536;13.468;2023-02-01T10:33:47;0.60;;;0.60;;
29340;SDS011;16337;59.536;13.468;2023-02-01T10:36:30;0.57;;;0.57;;
29340;SDS011;16337;59.536;13.468;2023-02-01T10:39:00;0.52;;;0.52;;
29340;SDS011;16337;59.536;13.468;2023-02-01T10:41:36;0.73;;;0.73;;
29340;SDS011;16337;59.536;13.468;2023-02-01T10:44:12;0.60;;;0.60;;
29340;SDS011;16337;59.536;13.468;2023-02-01T10:46:59;0.90;;;0.90;;
29340;SDS011;16337;59.536;13.468;2023-02-01T10:49:34;0.50;;;0.50;;
29340;SDS011;16337;59.536;13.468;2023-02-01T10:57:57;1.50;;;1.38;;
29340;SDS011;16337;59.536;13.468;2023-02-01T11:00:24;3.00;;;2.58;;
29340;SDS011;16337;59.536;13.468;2023-02-01T11:02:50;0.88;;;0.88;;
29340;SDS011;16337;59.536;13.468;2023-02-01T11:05:17;1.27;;;1.17;;
29340;SDS011;16337;59.536;13.468;2023-02-01T11:07:47;0.63;;;0.63;;
29340;SDS011;16337;59.536;13.468;2023-02-01T11:13:16;0.90;;;0.90;;
29340;SDS011;16337;59.536;13.468;2023-02-01T11:15:46;0.80;;;0.80;;
29340;SDS011;16337;59.536;13.468;2023-02-01T11:18:20;0.57;;;0.57;;
29340;SDS011;16337;59.536;13.468;2023-02-01T11:20:52;0.80;;;0.80;;
29340;SDS011;16337;59.536;13.468;2023-02-01T11:23:21;1.52;;;1.40;;
29340;SDS011;16337;59.536;13.468;2023-02-01T11:28:46;0.70;;;0.70;;
29340;SDS011;16337;59.536;13.468;2023-02-01T11:31:21;0.70;;;0.70;;
29340;SDS011;16337;59.536;13.468;2023-02-01T11:33:59;0.60;;;0.60;;
29340;SDS011;16337;59.536;13.468;2023-02-01T11:36:35;0.57;;;0.57;;
29340;SDS011;16337;59.536;13.468;2023-02-01T11:41:41;0.70;;;0.70;;
29340;SDS011;16337;59.536;13.468;2023-02-01T11:44:18;0.47;;;0.47;;
29340;SDS011;16337;59.536;13.468;2023-02-01T11:46:47;5.68;;;1.63;;
29340;SDS011;16337;59.536;13.468;2023-02-01T12:05:51;0.60;;;0.60;;
29340;SDS011;16337;59.536;13.468;2023-02-01T12:15:03;0.63;;;0.63;;
29340;SDS011;16337;59.536;13.468;2023-02-01T12:31:24;1.08;;;1.05;;
29340;SDS011;16337;59.536;13.468;2023-02-01T12:37:04;0.60;;;0.60;;
29340;SDS011;16337;59.536;13.468;2023-02-01T12:39:40;0.70;;;0.70;;
29340;SDS011;16337;59.536;13.468;2023-02-01T12:42:36;0.70;;;0.70;;
29340;SDS011;16337;59.536;13.468;2023-02-01T12:45:24;0.60;;;0.60;;
29340;SDS011;16337;59.536;13.468;2023-02-01T12:47:55;0.52;;;0.52;;
29340;SDS011;16337;59.536;13.468;2023-02-01T12:50:30;0.60;;;0.60;;
29340;SDS011;16337;59.536;13.468;2023-02-01T12:53:09;0.68;;;0.68;;
29340;SDS011;16337;59.536;13.468;2023-02-01T12:55:50;0.70;;;0.70;;
29340;SDS011;16337;59.536;13.468;2023-02-01T13:01:12;0.70;;;0.70;;
29340;SDS011;16337;59.536;13.468;2023-02-01T13:04:08;0.70;;;0.70;;
29340;SDS011;16337;59.536;13.468;2023-02-01T13:06:43;0.52;;;0.52;;
29340;SDS011;16337;59.536;13.468;2023-02-01T13:11:48;0.77;;;0.77;;
29340;SDS011;16337;59.536;13.468;2023-02-01T13:14:25;0.63;;;0.63;;
29340;SDS011;16337;59.536;13.468;2023-02-01T13:16:57;0.60;;;0.60;;
29340;SDS011;16337;59.536;13.468;2023-02-01T13:19:40;0.70;;;0.70;;
29340;SDS011;16337;59.536;13.468;2023-02-01T13:22:13;0.70;;;0.70;;
29340;SDS011;16337;59.536;13.468;2023-02-01T13:25:04;0.60;;;0.60;;
29340;SDS011;16337;59.536;13.468;2023-02-01T13:27:43;0.63;;;0.63;;
29340;SDS011;16337;59.536;13.468;2023-02-01T13:30:15;0.50;;;0.50;;
29340;SDS011;16337;59.536;13.468;2023-02-01T13:43:40;0.70;;;0.70;;
29340;SDS011;16337;59.536;13.468;2023-02-01T13:46:11;0.80;;;0.80;;
29340;SDS011;16337;59.536;13.468;2023-02-01T13:49:00;0.70;;;0.70;;
29340;SDS011;16337;59.536;13.468;2023-02-01T13:51:46;1.17;;;1.10;;
29340;SDS011;16337;59.536;13.468;2023-02-01T13:54:26;0.80;;;0.80;;
29340;SDS011;16337;59.536;13.468;2023-02-01T13:56:56;0.73;;;0.73;;
29340;SDS011;16337;59.536;13.468;2023-02-01T13:59:46;0.65;;;0.65;;
29340;SDS011;16337;59.536;13.468;2023-02-01T14:05:09;0.70;;;0.70;;
29340;SDS011;16337;59.536;13.468;2023-02-01T14:07:36;0.70;;;0.70;;
29340;SDS011;16337;59.536;13.468;2023-02-01T14:26:46;0.52;;;0.52;;
29340;SDS011;16337;59.536;13.468;2023-02-01T14:31:43;0.70;;;0.70;;
29340;SDS011;16337;59.536;13.468;2023-02-01T14:34:15;0.70;;;0.70;;
29340;SDS011;16337;59.536;13.468;2023-02-01T14:36:52;0.90;;;0.90;;
29340;SDS011;16337;59.536;13.468;2023-02-01T14:41:58;0.70;;;0.70;;
29340;SDS011;16337;59.536;13.468;2023-02-01T14:44:32;0.60;;;0.60;;
29340;SDS011;16337;59.536;13.468;2023-02-01T14:47:07;0.70;;;0.70;;
29340;SDS011;16337;59.536;13.468;2023-02-01T14:49:47;0.70;;;0.70;;
29340;SDS011;16337;59.536;13.468;2023-02-01T14:52:22;0.70;;;0.70;;
29340;SDS011;16337;59.536;13.468;2023-02-01T14:54:55;0.60;;;0.60;;
29340;SDS011;16337;59.536;13.468;2023-02-01T14:57:26;0.70;;;0.70;;
29340;SDS011;16337;59.536;13.468;2023-02-01T14:59:57;0.82;;;0.82;;
29340;SDS011;16337;59.536;13.468;2023-02-01T15:02:30;0.70;;;0.70;;
29340;SDS011;16337;59.536;13.468;2023-02-01T15:05:01;0.80;;;0.80;;
29340;SDS011;16337;59.536;13.468;2023-02-01T15:07:39;0.70;;;0.70;;
29340;SDS011;16337;59.536;13.468;2023-02-01T15:10:05;0.93;;;0.93;;
29340;SDS011;16337;59.536;13.468;2023-02-01T15:12:32;1.13;;;1.10;;
29340;SDS011;16337;59.536;13.468;2023-02-01T15:15:38;1.50;;;1.20;;
29340;SDS011;16337;59.536;13.468;2023-02-01T15:18:04;1.10;;;1.10;;
29340;SDS011;16337;59.536;13.468;2023-02-01T15:20:30;1.30;;;1.20;;
29340;SDS011;16337;59.536;13.468;2023-02-01T15:22:58;0.60;;;0.60;;
29340;SDS011;16337;59.536;13.468;2023-02-01T15:25:30;0.70;;;0.70;;
29340;SDS011;16337;59.536;13.468;2023-02-01T15:27:57;0.70;;;0.70;;
29340;SDS011;16337;59.536;13.468;2023-02-01T15:30:30;0.63;;;0.63;;
29340;SDS011;16337;59.536;13.468;2023-02-01T15:35:54;0.60;;;0.60;;
29340;SDS011;16337;59.536;13.468;2023-02-01T15:43:41;0.85;;;0.85;;
29340;SDS011;16337;59.536;13.468;2023-02-01T15:46:12;0.70;;;0.70;;
29340;SDS011;16337;59.536;13.468;2023-02-01T15:48:44;0.60;;;0.60;;
29340;SDS011;16337;59.536;13.468;2023-02-01T15:51:22;0.57;;;0.57;;
29340;SDS011;16337;59.536;13.468;2023-02-01T15:53:53;0.60;;;0.60;;
29340;SDS011;16337;59.536;13.468;2023-02-01T15:59:22;0.70;;;0.70;;
29340;SDS011;16337;59.536;13.468;2023-02-01T16:01:50;0.70;;;0.70;;
29340;SDS011;16337;59.536;13.468;2023-02-01T16:07:00;0.55;;;0.55;;
29340;SDS011;16337;59.536;13.468;2023-02-01T16:09:39;0.75;;;0.75;;
29340;SDS011;16337;59.536;13.468;2023-02-01T16:14:55;0.90;;;0.90;;
29340;SDS011;16337;59.536;13.468;2023-02-01T16:17:21;1.77;;;1.67;;
29340;SDS011;16337;59.536;13.468;2023-02-01T16:19:52;3.13;;;2.63;;
29340;SDS011;16337;59.536;13.468;2023-02-01T16:22:18;2.00;;;1.90;;
29340;SDS011;16337;59.536;13.468;2023-02-01T16:24:44;14.40;;;5.50;;
29340;SDS011;16337;59.536;13.468;2023-02-01T16:27:10;2.83;;;2.63;;
29340;SDS011;16337;59.536;13.468;2023-02-01T16:29:35;13.80;;;4.47;;
29340;SDS011;16337;59.536;13.468;2023-02-01T16:32:01;1.77;;;1.67;;
29340;SDS011;16337;59.536;13.468;2023-02-01T16:34:27;7.88;;;4.00;;
29340;SDS011;16337;59.536;13.468;2023-02-01T16:36:53;6.07;;;5.47;;
29340;SDS011;16337;59.536;13.468;2023-02-01T16:39:22;4.63;;;4.13;;
29340;SDS011;16337;59.536;13.468;2023-02-01T16:41:48;6.40;;;3.35;;
29340;SDS011;16337;59.536;13.468;2023-02-01T16:44:14;2.10;;;2.00;;
29340;SDS011;16337;59.536;13.468;2023-02-01T16:46:41;1.25;;;1.15;;
29340;SDS011;16337;59.536;13.468;2023-02-01T16:49:20;0.70;;;0.70;;
29340;SDS011;16337;59.536;13.468;2023-02-01T16:51:49;1.10;;;1.10;;
29340;SDS011;16337;59.536;13.468;2023-02-01T16:54:20;1.20;;;1.17;;
29340;SDS011;16337;59.536;13.468;2023-02-01T16:56:46;1.10;;;1.10;;
29340;SDS011;16337;59.536;13.468;2023-02-01T16:59:12;1.70;;;1.60;;
29340;SDS011;16337;59.536;13.468;2023-02-01T17:01:39;1.13;;;1.08;;
29340;SDS011;16337;59.536;13.468;2023-02-01T17:04:07;2.00;;;1.90;;
29340;SDS011;16337;59.536;13.468;2023-02-01T17:06:33;2.83;;;1.88;;
29340;SDS011;16337;59.536;13.468;2023-02-01T17:09:01;2.75;;;2.55;;
29340;SDS011;16337;59.536;13.468;2023-02-01T17:11:28;2.50;;;1.90;;
29340;SDS011;16337;59.536;13.468;2023-02-01T17:13:56;2.05;;;1.27;;
29340;SDS011;16337;59.536;13.468;2023-02-01T17:16:27;0.88;;;0.88;;
29340;SDS011;16337;59.536;13.468;2023-02-01T17:18:56;0.90;;;0.90;;
29340;SDS011;16337;59.536;13.468;2023-02-01T17:21:25;0.60;;;0.60;;
29340;SDS011;16337;59.536;13.468;2023-02-01T17:23:53;0.60;;;0.60;;
29340;SDS011;16337;59.536;13.468;2023-02-01T17:26:19;0.70;;;0.70;;
29340;SDS011;16337;59.536;13.468;2023-02-01T17:28:45;0.60;;;0.60;;
29340;SDS011;16337;59.536;13.468;2023-02-01T17:31:12;0.70;;;0.70;;